createdAt,value
2018-03-16T00:00:00.299Z,41.60
2018-03-16T00:00:22.375Z,41.60
2018-03-16T00:00:44.449Z,41.60
2018-03-16T00:01:07.273Z,41.60
2018-03-16T00:01:29.322Z,41.60
2018-03-16T00:01:51.376Z,41.60
2018-03-16T00:02:13.575Z,41.50
2018-03-16T00:02:35.529Z,41.50
2018-03-16T00:02:57.601Z,41.50
2018-03-16T00:03:19.671Z,41.50
2018-03-16T00:03:41.772Z,41.50
2018-03-16T00:04:03.828Z,41.60
2018-03-16T00:04:26.677Z,41.50
2018-03-16T00:04:48.737Z,41.50
2018-03-16T00:05:10.798Z,41.50
2018-03-16T00:05:33.613Z,41.50
2018-03-16T00:05:55.806Z,41.50
2018-03-16T00:06:17.858Z,41.50
2018-03-16T00:06:40.678Z,41.60
2018-03-16T00:07:02.724Z,41.60
2018-03-16T00:07:25.554Z,41.60
2018-03-16T00:07:48.386Z,41.60
2018-03-16T00:08:11.259Z,41.60
2018-03-16T00:08:33.313Z,41.60
2018-03-16T00:08:55.383Z,41.60
2018-03-16T00:09:17.450Z,41.60
2018-03-16T00:09:39.513Z,41.60
2018-03-16T00:10:01.583Z,41.60
2018-03-16T00:10:23.642Z,41.50
2018-03-16T00:10:45.702Z,41.50
2018-03-16T00:11:08.007Z,41.50
2018-03-16T00:11:30.075Z,41.60
2018-03-16T00:11:52.901Z,41.80
2018-03-16T00:12:14.960Z,41.50
2018-03-16T00:12:37.024Z,41.50
2018-03-16T00:12:59.096Z,41.50
2018-03-16T00:13:21.145Z,41.50
2018-03-16T00:13:43.236Z,41.50
2018-03-16T00:14:05.293Z,41.50
2018-03-16T00:14:27.348Z,41.50
2018-03-16T00:14:50.182Z,41.50
2018-03-16T00:15:13.021Z,41.50
2018-03-16T00:15:35.841Z,41.50
2018-03-16T00:15:58.663Z,41.50
2018-03-16T00:16:20.731Z,41.50
2018-03-16T00:16:42.803Z,41.50
2018-03-16T00:17:04.863Z,41.40
2018-03-16T00:17:26.921Z,41.40
2018-03-16T00:17:48.990Z,41.40
2018-03-16T00:18:11.095Z,41.40
2018-03-16T00:18:33.911Z,41.40
2018-03-16T00:18:56.007Z,41.40
2018-03-16T00:19:18.079Z,41.40
2018-03-16T00:19:40.136Z,41.40
2018-03-16T00:20:02.191Z,41.40
2018-03-16T00:20:25.022Z,41.40
2018-03-16T00:20:47.861Z,41.40
2018-03-16T00:21:10.692Z,41.40
2018-03-16T00:21:32.758Z,41.40
2018-03-16T00:21:54.810Z,41.40
2018-03-16T00:22:16.875Z,41.40
2018-03-16T00:22:39.145Z,41.40
2018-03-16T00:23:01.194Z,41.40
2018-03-16T00:23:24.103Z,41.40
2018-03-16T00:23:46.184Z,41.40
2018-03-16T00:24:08.250Z,41.40
2018-03-16T00:24:31.069Z,41.50
2018-03-16T00:24:53.124Z,41.40
2018-03-16T00:25:15.195Z,41.40
2018-03-16T00:25:37.299Z,41.40
2018-03-16T00:25:59.320Z,41.50
2018-03-16T00:26:21.393Z,41.40
2018-03-16T00:26:43.450Z,41.50
2018-03-16T00:27:05.730Z,41.40
2018-03-16T00:27:27.792Z,41.40
2018-03-16T00:27:49.879Z,41.40
2018-03-16T00:28:12.037Z,41.30
2018-03-16T00:28:34.085Z,41.30
2018-03-16T00:28:56.930Z,41.30
2018-03-16T00:29:19.819Z,41.30
2018-03-16T00:29:41.902Z,41.30
2018-03-16T00:30:04.148Z,41.30
2018-03-16T00:30:26.209Z,41.30
2018-03-16T00:30:49.024Z,41.60
2018-03-16T00:31:11.155Z,41.30
2018-03-16T00:31:33.206Z,41.20
2018-03-16T00:31:55.278Z,41.20
2018-03-16T00:32:17.407Z,41.20
2018-03-16T00:32:39.448Z,41.20
2018-03-16T00:33:02.268Z,41.10
2018-03-16T00:33:25.105Z,41.80
2018-03-16T00:33:47.969Z,41.90
2018-03-16T00:34:10.032Z,41.20
2018-03-16T00:34:32.080Z,41.20
2018-03-16T00:34:54.917Z,41.30
2018-03-16T00:35:17.741Z,41.30
2018-03-16T00:35:39.814Z,41.20
2018-03-16T00:36:01.948Z,41.30
2018-03-16T00:36:24.037Z,41.30
2018-03-16T00:36:46.096Z,41.30
2018-03-16T00:37:08.147Z,41.30
2018-03-16T00:37:30.967Z,41.30
2018-03-16T00:37:53.018Z,41.30
2018-03-16T00:38:15.080Z,41.30
2018-03-16T00:38:37.141Z,41.40
2018-03-16T00:38:59.219Z,41.30
2018-03-16T00:39:21.288Z,41.30
2018-03-16T00:39:43.412Z,41.30
2018-03-16T00:40:05.478Z,41.30
2018-03-16T00:40:27.538Z,41.30
2018-03-16T00:40:49.607Z,41.30
2018-03-16T00:41:11.665Z,41.30
2018-03-16T00:41:33.864Z,41.30
2018-03-16T00:41:56.694Z,42.00
2018-03-16T00:42:18.749Z,41.30
2018-03-16T00:42:40.826Z,41.30
2018-03-16T00:43:02.892Z,41.30
2018-03-16T00:43:24.950Z,41.10
2018-03-16T00:43:47.006Z,41.30
2018-03-16T00:44:09.087Z,41.30
2018-03-16T00:44:31.165Z,41.30
2018-03-16T00:44:53.234Z,41.30
2018-03-16T00:45:15.314Z,41.30
2018-03-16T00:45:37.555Z,41.30
2018-03-16T00:45:59.676Z,41.30
2018-03-16T00:46:21.739Z,41.30
2018-03-16T00:46:43.848Z,41.30
2018-03-16T00:47:06.676Z,41.20
2018-03-16T00:47:29.558Z,41.10
2018-03-16T00:47:51.619Z,41.10
2018-03-16T00:48:13.692Z,41.10
2018-03-16T00:48:35.838Z,41.10
2018-03-16T00:48:57.898Z,41.10
2018-03-16T00:49:19.958Z,41.10
2018-03-16T00:49:42.013Z,41.10
2018-03-16T00:50:04.846Z,41.10
2018-03-16T00:50:27.666Z,41.10
2018-03-16T00:50:49.848Z,41.00
2018-03-16T00:51:12.066Z,40.90
2018-03-16T00:51:34.132Z,41.10
2018-03-16T00:51:56.189Z,41.10
2018-03-16T00:52:18.253Z,41.10
2018-03-16T00:52:40.318Z,41.00
2018-03-16T00:53:02.379Z,41.10
2018-03-16T00:53:24.439Z,41.00
2018-03-16T00:53:47.283Z,41.10
2018-03-16T00:54:09.612Z,41.10
2018-03-16T00:54:31.690Z,41.00
2018-03-16T00:54:53.744Z,41.10
2018-03-16T00:55:15.808Z,41.10
2018-03-16T00:55:37.869Z,41.10
2018-03-16T00:56:00.683Z,41.10
2018-03-16T00:56:22.740Z,41.10
2018-03-16T00:56:44.806Z,41.10
2018-03-16T00:57:06.872Z,41.00
2018-03-16T00:57:28.929Z,41.00
2018-03-16T00:57:50.981Z,40.90
2018-03-16T00:58:13.807Z,41.10
2018-03-16T00:58:36.643Z,41.30
2018-03-16T00:58:59.500Z,41.10
2018-03-16T00:59:21.570Z,41.00
2018-03-16T00:59:43.624Z,41.00
2018-03-16T01:00:06.448Z,41.10
2018-03-16T01:00:28.489Z,40.90
2018-03-16T01:00:50.535Z,41.10
2018-03-16T01:01:12.580Z,41.00
2018-03-16T01:01:34.634Z,41.00
2018-03-16T01:01:56.690Z,41.00
2018-03-16T01:02:18.749Z,41.00
2018-03-16T01:02:41.564Z,41.10
2018-03-16T01:03:03.622Z,41.00
2018-03-16T01:03:25.685Z,41.00
2018-03-16T01:03:47.784Z,41.00
2018-03-16T01:04:09.851Z,41.00
2018-03-16T01:04:31.904Z,40.90
2018-03-16T01:04:53.947Z,41.10
2018-03-16T01:05:16.002Z,40.90
2018-03-16T01:05:38.058Z,41.00
2018-03-16T01:06:00.100Z,41.10
2018-03-16T01:06:22.166Z,41.00
2018-03-16T01:06:44.987Z,41.00
2018-03-16T01:07:07.822Z,41.10
2018-03-16T01:07:29.880Z,40.90
2018-03-16T01:07:51.941Z,41.10
2018-03-16T01:08:14.117Z,41.00
2018-03-16T01:08:36.167Z,41.00
2018-03-16T01:08:58.237Z,41.00
2018-03-16T01:09:20.289Z,41.00
2018-03-16T01:09:42.337Z,41.00
2018-03-16T01:10:04.403Z,41.00
2018-03-16T01:10:26.476Z,41.00
2018-03-16T01:10:48.535Z,41.00
2018-03-16T01:11:10.599Z,41.60
2018-03-16T01:11:33.428Z,41.00
2018-03-16T01:11:55.475Z,41.00
2018-03-16T01:12:18.293Z,41.10
2018-03-16T01:12:40.336Z,40.90
2018-03-16T01:13:03.158Z,41.00
2018-03-16T01:13:25.985Z,41.10
2018-03-16T01:13:48.032Z,41.00
2018-03-16T01:14:10.103Z,41.20
2018-03-16T01:14:32.197Z,41.00
2018-03-16T01:14:54.222Z,41.00
2018-03-16T01:15:16.317Z,40.90
2018-03-16T01:15:39.101Z,41.10
2018-03-16T01:16:01.159Z,41.00
2018-03-16T01:16:23.215Z,41.00
2018-03-16T01:16:45.274Z,41.00
2018-03-16T01:17:08.112Z,41.10
2018-03-16T01:17:30.940Z,41.10
2018-03-16T01:17:53.763Z,41.10
2018-03-16T01:18:15.829Z,40.90
2018-03-16T01:18:37.905Z,41.60
2018-03-16T01:19:00.741Z,41.60
2018-03-16T01:19:23.559Z,41.70
2018-03-16T01:19:47.122Z,41.00
2018-03-16T01:20:09.176Z,40.90
2018-03-16T01:20:36.757Z,41.10
2018-03-16T01:20:58.820Z,41.00
2018-03-16T01:21:21.641Z,41.10
2018-03-16T01:21:44.497Z,40.90
2018-03-16T01:22:07.305Z,41.00
2018-03-16T01:22:29.587Z,41.00
2018-03-16T01:22:51.657Z,41.00
2018-03-16T01:23:14.486Z,41.00
2018-03-16T01:23:36.557Z,40.90
2018-03-16T01:23:58.625Z,41.10
2018-03-16T01:24:21.609Z,41.10
2018-03-16T01:24:43.658Z,40.90
2018-03-16T01:25:05.724Z,40.90
2018-03-16T01:25:27.903Z,41.00
2018-03-16T01:25:50.086Z,40.90
2018-03-16T01:26:12.198Z,41.00
2018-03-16T01:26:34.256Z,40.90
2018-03-16T01:26:56.323Z,40.90
2018-03-16T01:27:18.394Z,40.90
2018-03-16T01:27:40.542Z,40.90
2018-03-16T01:28:02.652Z,40.90
2018-03-16T01:28:25.541Z,41.00
2018-03-16T01:28:47.632Z,41.00
2018-03-16T01:29:09.870Z,40.90
2018-03-16T01:29:31.967Z,40.90
2018-03-16T01:29:54.188Z,40.90
2018-03-16T01:30:16.290Z,41.00
2018-03-16T01:30:39.158Z,40.90
2018-03-16T01:31:01.384Z,40.90
2018-03-16T01:31:23.500Z,41.00
2018-03-16T01:31:45.615Z,40.90
2018-03-16T01:32:07.881Z,41.00
2018-03-16T01:32:29.958Z,40.90
2018-03-16T01:32:52.047Z,40.90
2018-03-16T01:33:14.078Z,40.90
2018-03-16T01:33:36.150Z,40.90
2018-03-16T01:33:58.228Z,41.60
2018-03-16T01:34:20.276Z,40.90
2018-03-16T01:34:42.334Z,40.90
2018-03-16T01:35:04.396Z,41.60
2018-03-16T01:35:26.452Z,40.90
2018-03-16T01:35:49.293Z,41.00
2018-03-16T01:36:12.127Z,41.10
2018-03-16T01:36:34.959Z,41.00
2018-03-16T01:36:57.781Z,41.00
2018-03-16T01:37:19.843Z,40.90
2018-03-16T01:37:41.915Z,41.00
2018-03-16T01:38:03.973Z,40.90
2018-03-16T01:38:26.049Z,41.00
2018-03-16T01:38:48.098Z,40.90
2018-03-16T01:39:10.282Z,40.90
2018-03-16T01:39:32.344Z,40.90
2018-03-16T01:39:54.393Z,40.90
2018-03-16T01:40:16.473Z,41.00
2018-03-16T01:40:38.528Z,40.90
2018-03-16T01:41:00.597Z,40.90
2018-03-16T01:41:23.416Z,41.00
2018-03-16T01:41:45.468Z,40.90
2018-03-16T01:42:07.596Z,40.40
2018-03-16T01:42:29.651Z,40.90
2018-03-16T01:42:51.701Z,41.00
2018-03-16T01:43:14.528Z,40.90
2018-03-16T01:43:37.352Z,41.00
2018-03-16T01:43:59.432Z,40.90
2018-03-16T01:44:21.511Z,41.10
2018-03-16T01:44:44.336Z,41.00
2018-03-16T01:45:07.168Z,41.00
2018-03-16T01:45:29.995Z,41.00
2018-03-16T01:45:52.052Z,40.90
2018-03-16T01:46:14.116Z,41.00
2018-03-16T01:46:36.163Z,41.00
2018-03-16T01:46:58.972Z,41.00
2018-03-16T01:47:21.797Z,41.00
2018-03-16T01:47:43.853Z,41.00
2018-03-16T01:48:06.654Z,40.90
2018-03-16T01:48:28.724Z,40.90
2018-03-16T01:48:50.772Z,40.90
2018-03-16T01:49:12.838Z,40.90
2018-03-16T01:49:35.693Z,40.90
2018-03-16T01:49:57.751Z,41.00
2018-03-16T01:50:19.812Z,40.90
2018-03-16T01:50:41.872Z,40.90
2018-03-16T01:51:03.957Z,40.90
2018-03-16T01:51:26.010Z,41.00
2018-03-16T01:51:48.073Z,40.90
2018-03-16T01:52:10.892Z,41.00
2018-03-16T01:52:32.944Z,40.90
2018-03-16T01:52:54.993Z,41.60
2018-03-16T01:53:17.046Z,40.90
2018-03-16T01:53:39.107Z,40.90
2018-03-16T01:54:01.179Z,40.90
2018-03-16T01:54:23.253Z,41.00
2018-03-16T01:54:45.303Z,41.00
2018-03-16T01:55:07.359Z,40.90
2018-03-16T01:55:29.428Z,40.90
2018-03-16T01:55:51.481Z,40.90
2018-03-16T01:56:14.312Z,41.00
2018-03-16T01:56:37.149Z,41.00
2018-03-16T01:57:00.000Z,41.00
2018-03-16T01:57:22.057Z,40.90
2018-03-16T01:57:44.113Z,41.00
2018-03-16T01:58:06.932Z,41.00
2018-03-16T01:58:29.749Z,40.90
2018-03-16T01:58:51.810Z,41.00
2018-03-16T01:59:14.646Z,40.90
2018-03-16T01:59:37.463Z,40.90
2018-03-16T02:00:00.282Z,41.00
2018-03-16T02:00:22.343Z,40.90
2018-03-16T02:00:44.394Z,40.90
2018-03-16T02:01:06.436Z,40.90
2018-03-16T02:01:28.492Z,41.00
2018-03-16T02:01:50.540Z,40.90
2018-03-16T02:02:12.606Z,40.90
2018-03-16T02:02:35.434Z,41.00
2018-03-16T02:02:58.259Z,40.90
2018-03-16T02:03:20.313Z,40.90
2018-03-16T02:03:42.372Z,40.90
2018-03-16T02:04:04.458Z,40.90
2018-03-16T02:04:26.523Z,40.90
2018-03-16T02:04:48.580Z,40.90
2018-03-16T02:05:11.632Z,40.90
2018-03-16T02:05:33.686Z,40.90
2018-03-16T02:05:55.742Z,40.90
2018-03-16T02:06:18.556Z,41.00
2018-03-16T02:06:40.601Z,40.90
2018-03-16T02:07:03.407Z,41.00
2018-03-16T02:07:25.456Z,40.90
2018-03-16T02:07:48.298Z,40.90
2018-03-16T02:08:10.330Z,40.90
2018-03-16T02:08:32.384Z,41.00
2018-03-16T02:08:54.446Z,40.90
2018-03-16T02:09:16.526Z,40.90
2018-03-16T02:09:38.580Z,40.90
2018-03-16T02:10:00.647Z,40.90
2018-03-16T02:10:22.706Z,40.90
2018-03-16T02:10:45.527Z,41.00
2018-03-16T02:11:07.580Z,40.90
2018-03-16T02:11:29.664Z,41.00
2018-03-16T02:11:52.481Z,41.60
2018-03-16T02:12:14.538Z,40.90
2018-03-16T02:12:36.609Z,40.90
2018-03-16T02:12:58.693Z,40.90
2018-03-16T02:13:20.743Z,40.90
2018-03-16T02:13:42.799Z,40.90
2018-03-16T02:14:05.632Z,40.90
2018-03-16T02:14:28.472Z,41.00
2018-03-16T02:14:51.295Z,40.90
2018-03-16T02:15:14.156Z,40.90
2018-03-16T02:15:36.208Z,40.90
2018-03-16T02:15:58.293Z,40.90
2018-03-16T02:16:20.340Z,40.90
2018-03-16T02:16:42.412Z,40.90
2018-03-16T02:17:05.238Z,40.90
2018-03-16T02:17:28.063Z,41.00
2018-03-16T02:17:50.107Z,40.90
2018-03-16T02:18:12.180Z,41.00
2018-03-16T02:18:34.242Z,40.90
2018-03-16T02:18:56.281Z,40.90
2018-03-16T02:19:18.352Z,40.90
2018-03-16T02:19:40.393Z,40.90
2018-03-16T02:20:02.444Z,41.00
2018-03-16T02:20:24.491Z,40.90
2018-03-16T02:20:46.561Z,40.90
2018-03-16T02:21:08.619Z,40.90
2018-03-16T02:21:30.672Z,40.90
2018-03-16T02:21:53.490Z,40.90
2018-03-16T02:22:16.322Z,41.00
2018-03-16T02:22:38.389Z,40.90
2018-03-16T02:23:00.441Z,41.00
2018-03-16T02:23:22.493Z,40.90
2018-03-16T02:23:45.335Z,40.90
2018-03-16T02:24:07.420Z,40.90
2018-03-16T02:24:29.482Z,40.90
2018-03-16T02:24:51.553Z,41.00
2018-03-16T02:25:13.675Z,40.90
2018-03-16T02:25:35.694Z,40.50
2018-03-16T02:25:57.739Z,40.90
2018-03-16T02:26:19.793Z,41.00
2018-03-16T02:26:42.006Z,40.90
2018-03-16T02:27:04.068Z,40.90
2018-03-16T02:27:26.112Z,40.90
2018-03-16T02:27:48.190Z,41.00
2018-03-16T02:28:10.256Z,40.90
2018-03-16T02:28:32.329Z,40.90
2018-03-16T02:28:54.380Z,40.90
2018-03-16T02:29:16.452Z,40.90
2018-03-16T02:29:38.510Z,40.90
2018-03-16T02:30:00.574Z,40.90
2018-03-16T02:30:22.621Z,40.90
2018-03-16T02:30:44.672Z,40.90
2018-03-16T02:31:06.717Z,41.00
2018-03-16T02:31:28.773Z,40.90
2018-03-16T02:31:50.831Z,40.90
2018-03-16T02:32:12.883Z,41.00
2018-03-16T02:32:34.934Z,40.90
2018-03-16T02:32:57.759Z,40.90
2018-03-16T02:33:20.591Z,41.00
2018-03-16T02:33:42.616Z,40.90
2018-03-16T02:34:05.439Z,41.00
2018-03-16T02:34:27.476Z,40.90
2018-03-16T02:34:50.318Z,41.00
2018-03-16T02:35:13.144Z,41.10
2018-03-16T02:35:35.985Z,41.00
2018-03-16T02:35:58.812Z,40.90
2018-03-16T02:36:21.643Z,41.00
2018-03-16T02:36:44.517Z,41.00
2018-03-16T02:37:06.566Z,40.90
2018-03-16T02:37:28.625Z,40.90
2018-03-16T02:37:51.640Z,40.90
2018-03-16T02:38:13.741Z,40.90
2018-03-16T02:38:35.771Z,40.90
2018-03-16T02:38:57.829Z,40.90
2018-03-16T02:39:19.897Z,40.90
2018-03-16T02:39:42.019Z,40.90
2018-03-16T02:40:04.174Z,40.90
2018-03-16T02:40:26.252Z,40.90
2018-03-16T02:40:48.311Z,40.90
2018-03-16T02:41:11.140Z,40.90
2018-03-16T02:41:33.968Z,41.00
2018-03-16T02:41:56.789Z,41.00
2018-03-16T02:42:18.857Z,40.90
2018-03-16T02:42:40.873Z,40.90
2018-03-16T02:43:02.935Z,40.90
2018-03-16T02:43:25.170Z,40.90
2018-03-16T02:43:47.986Z,41.30
2018-03-16T02:44:10.053Z,40.90
2018-03-16T02:44:32.130Z,40.90
2018-03-16T02:44:54.222Z,40.90
2018-03-16T02:45:16.294Z,40.90
2018-03-16T02:45:38.350Z,40.90
2018-03-16T02:46:00.400Z,40.90
2018-03-16T02:46:22.466Z,40.90
2018-03-16T02:46:44.529Z,41.00
2018-03-16T02:47:06.578Z,40.90
2018-03-16T02:47:28.641Z,40.90
2018-03-16T02:47:50.697Z,40.90
2018-03-16T02:48:13.515Z,41.00
2018-03-16T02:48:36.336Z,40.90
2018-03-16T02:48:58.382Z,41.00
2018-03-16T02:49:21.233Z,41.00
2018-03-16T02:49:44.066Z,40.90
2018-03-16T02:50:06.908Z,41.00
2018-03-16T02:50:29.806Z,40.90
2018-03-16T02:50:51.862Z,40.90
2018-03-16T02:51:13.948Z,41.60
2018-03-16T02:51:36.029Z,40.90
2018-03-16T02:51:58.077Z,40.90
2018-03-16T02:52:20.142Z,40.90
2018-03-16T02:52:42.198Z,40.90
2018-03-16T02:53:04.257Z,40.90
2018-03-16T02:53:27.119Z,41.00
2018-03-16T02:53:49.178Z,40.90
2018-03-16T02:54:11.253Z,40.90
2018-03-16T02:54:33.325Z,40.90
2018-03-16T02:54:55.369Z,40.90
2018-03-16T02:55:18.197Z,40.90
2018-03-16T02:55:41.017Z,40.90
2018-03-16T02:56:03.060Z,40.90
2018-03-16T02:56:25.116Z,40.90
2018-03-16T02:56:47.181Z,40.90
2018-03-16T02:57:10.058Z,40.90
2018-03-16T02:57:32.128Z,40.90
2018-03-16T02:57:54.944Z,41.00
2018-03-16T02:58:17.044Z,40.90
2018-03-16T02:58:39.111Z,40.90
2018-03-16T02:59:01.923Z,40.90
2018-03-16T02:59:24.036Z,40.90
2018-03-16T02:59:46.093Z,40.90
2018-03-16T03:00:08.161Z,40.90
2018-03-16T03:00:30.209Z,40.90
2018-03-16T03:00:53.029Z,40.90
2018-03-16T03:01:15.077Z,40.90
2018-03-16T03:01:37.132Z,40.90
2018-03-16T03:01:59.188Z,40.90
2018-03-16T03:02:22.005Z,41.00
2018-03-16T03:02:44.112Z,40.90
2018-03-16T03:03:06.189Z,40.90
2018-03-16T03:03:28.237Z,41.60
2018-03-16T03:03:50.294Z,40.90
2018-03-16T03:04:13.109Z,40.40
2018-03-16T03:04:35.175Z,40.90
2018-03-16T03:04:57.352Z,40.90
2018-03-16T03:05:19.411Z,40.90
2018-03-16T03:05:41.470Z,40.90
2018-03-16T03:06:03.537Z,40.90
2018-03-16T03:06:25.616Z,40.90
2018-03-16T03:06:47.690Z,40.90
2018-03-16T03:07:09.750Z,40.90
2018-03-16T03:07:31.803Z,40.90
2018-03-16T03:07:54.626Z,40.90
2018-03-16T03:08:17.438Z,41.00
2018-03-16T03:08:39.497Z,40.90
2018-03-16T03:09:01.549Z,40.90
2018-03-16T03:09:23.629Z,40.90
2018-03-16T03:09:45.679Z,41.60
2018-03-16T03:10:07.881Z,40.90
2018-03-16T03:10:29.938Z,40.90
2018-03-16T03:10:52.000Z,40.90
2018-03-16T03:11:14.811Z,40.90
2018-03-16T03:11:36.859Z,41.50
2018-03-16T03:11:58.935Z,41.30
2018-03-16T03:12:20.996Z,40.90
2018-03-16T03:12:43.043Z,40.90
2018-03-16T03:13:05.096Z,40.90
2018-03-16T03:13:27.194Z,40.90
2018-03-16T03:13:49.268Z,41.30
2018-03-16T03:14:11.336Z,40.90
2018-03-16T03:14:33.418Z,40.90
2018-03-16T03:14:55.475Z,40.90
2018-03-16T03:15:17.529Z,40.90
2018-03-16T03:15:39.597Z,40.90
2018-03-16T03:16:01.653Z,40.90
2018-03-16T03:16:24.481Z,40.80
2018-03-16T03:16:47.318Z,40.80
2018-03-16T03:17:10.150Z,40.80
2018-03-16T03:17:32.977Z,40.80
2018-03-16T03:17:55.812Z,40.80
2018-03-16T03:18:17.872Z,40.80
2018-03-16T03:18:39.925Z,40.80
2018-03-16T03:19:01.973Z,40.90
2018-03-16T03:19:24.816Z,40.80
2018-03-16T03:19:47.650Z,41.40
2018-03-16T03:20:10.479Z,40.80
2018-03-16T03:20:33.304Z,40.80
2018-03-16T03:20:56.873Z,40.80
2018-03-16T03:21:19.795Z,40.80
2018-03-16T03:21:41.865Z,40.80
2018-03-16T03:22:03.920Z,40.80
2018-03-16T03:22:26.203Z,40.80
2018-03-16T03:22:48.277Z,40.70
2018-03-16T03:23:11.106Z,40.80
2018-03-16T03:23:33.160Z,40.80
2018-03-16T03:23:55.223Z,40.80
2018-03-16T03:24:17.275Z,40.80
2018-03-16T03:24:40.116Z,40.80
2018-03-16T03:25:02.940Z,40.70
2018-03-16T03:25:26.284Z,40.80
2018-03-16T03:25:49.096Z,40.80
2018-03-16T03:26:11.149Z,40.80
2018-03-16T03:26:33.204Z,40.80
2018-03-16T03:26:55.247Z,40.80
2018-03-16T03:27:17.476Z,40.80
2018-03-16T03:27:39.534Z,40.80
2018-03-16T03:28:01.590Z,40.80
2018-03-16T03:28:23.658Z,40.80
2018-03-16T03:28:45.709Z,40.80
2018-03-16T03:29:07.777Z,40.80
2018-03-16T03:29:30.611Z,40.80
2018-03-16T03:29:53.441Z,40.70
2018-03-16T04:14:02.759Z,40.70
2018-03-16T04:14:25.594Z,40.80
2018-03-16T04:14:48.471Z,40.70
2018-03-16T04:15:10.509Z,40.70
2018-03-16T04:15:32.555Z,40.60
2018-03-16T04:15:54.605Z,40.70
2018-03-16T04:16:16.641Z,40.60
2018-03-16T04:16:38.697Z,40.60
2018-03-16T04:17:00.753Z,40.50
2018-03-16T04:17:22.825Z,41.10
2018-03-16T04:17:44.887Z,40.50
2018-03-16T04:18:06.948Z,40.50
2018-03-16T04:18:29.003Z,40.50
2018-03-16T04:18:51.813Z,40.50
2018-03-16T04:19:13.880Z,40.50
2018-03-16T04:19:36.007Z,40.50
2018-03-16T04:19:58.052Z,40.50
2018-03-16T04:20:20.107Z,40.60
2018-03-16T04:20:42.929Z,40.60
2018-03-16T04:21:06.512Z,40.50
2018-03-16T04:21:28.562Z,40.50
2018-03-16T04:21:50.621Z,40.50
2018-03-16T04:22:13.453Z,41.10
2018-03-16T04:22:35.504Z,40.50
2018-03-16T04:22:57.556Z,40.50
2018-03-16T04:23:19.603Z,40.50
2018-03-16T04:23:41.657Z,40.50
2018-03-16T04:24:03.726Z,40.00
2018-03-16T04:24:25.864Z,40.50
2018-03-16T04:24:48.694Z,40.50
2018-03-16T04:25:10.737Z,40.50
2018-03-16T04:25:32.801Z,40.50
2018-03-16T04:25:54.881Z,40.50
2018-03-16T04:26:17.874Z,40.50
2018-03-16T04:26:39.934Z,40.40
2018-03-16T04:27:02.067Z,40.50
2018-03-16T04:27:24.125Z,40.50
2018-03-16T04:27:46.189Z,40.50
2018-03-16T04:28:08.258Z,40.50
2018-03-16T04:28:30.322Z,40.50
2018-03-16T04:28:52.376Z,40.40
2018-03-16T04:29:14.424Z,40.40
2018-03-16T04:29:36.493Z,40.40
2018-03-16T04:29:58.544Z,40.40
2018-03-16T04:30:20.661Z,40.40
2018-03-16T04:30:42.689Z,40.40
2018-03-16T04:31:04.791Z,40.40
2018-03-16T04:31:26.918Z,40.40
2018-03-16T04:31:49.751Z,40.40
2018-03-16T04:32:11.809Z,40.40
2018-03-16T04:32:33.853Z,40.40
2018-03-16T04:32:55.951Z,40.30
2018-03-16T04:33:18.003Z,40.40
2018-03-16T04:33:40.057Z,40.40
2018-03-16T04:34:02.883Z,40.30
2018-03-16T04:34:24.928Z,40.30
2018-03-16T04:34:47.006Z,40.30
2018-03-16T04:35:09.061Z,40.30
2018-03-16T04:35:31.120Z,40.30
2018-03-16T04:35:53.180Z,40.30
2018-03-16T04:36:16.038Z,40.40
2018-03-16T04:36:38.839Z,40.30
2018-03-16T04:37:00.896Z,40.30
2018-03-16T04:37:22.969Z,40.40
2018-03-16T04:37:45.012Z,40.30
2018-03-16T04:38:07.836Z,40.40
2018-03-16T04:38:30.665Z,40.40
2018-03-16T04:38:52.720Z,40.30
2018-03-16T04:39:14.798Z,40.40
2018-03-16T04:39:36.865Z,40.40
2018-03-16T04:39:58.946Z,40.40
2018-03-16T04:40:21.768Z,40.40
2018-03-16T04:40:44.518Z,40.40
2018-03-16T04:41:07.372Z,40.40
2018-03-16T04:41:29.421Z,40.40
2018-03-16T04:41:51.473Z,40.40
2018-03-16T04:42:14.302Z,40.40
2018-03-16T04:42:36.357Z,41.00
2018-03-16T04:42:58.409Z,40.40
2018-03-16T04:43:20.459Z,40.40
2018-03-16T04:43:42.476Z,40.40
2018-03-16T04:44:04.547Z,40.40
2018-03-16T04:44:26.611Z,40.40
2018-03-16T04:44:48.692Z,40.40
2018-03-16T04:45:10.758Z,40.40
2018-03-16T04:45:33.581Z,40.40
2018-03-16T04:45:56.428Z,40.40
2018-03-16T04:46:19.250Z,40.30
2018-03-16T04:46:41.305Z,40.30
2018-03-16T04:47:03.389Z,40.30
2018-03-16T04:47:26.214Z,40.30
2018-03-16T04:47:48.272Z,40.20
2018-03-16T04:48:10.342Z,40.20
2018-03-16T04:48:32.410Z,40.30
2018-03-16T04:48:54.496Z,40.20
2018-03-16T04:49:17.393Z,40.30
2018-03-16T04:49:39.510Z,40.30
2018-03-16T04:50:01.616Z,40.30
2018-03-16T04:50:23.744Z,40.30
2018-03-16T04:50:45.857Z,40.30
2018-03-16T04:51:07.919Z,40.30
2018-03-16T04:51:30.766Z,40.40
2018-03-16T04:51:53.573Z,40.40
2018-03-16T04:52:15.762Z,40.30
2018-03-16T04:52:37.827Z,40.40
2018-03-16T04:53:00.688Z,40.40
2018-03-16T04:53:22.749Z,40.30
2018-03-16T04:53:44.809Z,40.30
2018-03-16T04:54:07.665Z,40.30
2018-03-16T04:54:29.721Z,40.30
2018-03-16T04:54:51.799Z,40.30
2018-03-16T04:55:13.868Z,40.30
2018-03-16T04:55:35.927Z,40.30
2018-03-16T04:55:58.156Z,40.30
2018-03-16T04:56:20.203Z,40.20
2018-03-16T04:56:42.261Z,40.30
2018-03-16T04:57:05.084Z,40.20
2018-03-16T04:57:27.140Z,40.20
2018-03-16T04:57:49.200Z,40.30
2018-03-16T04:58:11.268Z,40.30
2018-03-16T04:58:33.341Z,40.30
2018-03-16T04:58:55.531Z,40.30
2018-03-16T04:59:17.567Z,40.30
2018-03-16T04:59:39.658Z,40.30
2018-03-16T05:00:01.779Z,40.30
2018-03-16T05:00:23.846Z,40.30
2018-03-16T05:00:45.989Z,40.30
2018-03-16T05:01:08.129Z,40.50
2018-03-16T05:01:30.182Z,40.30
2018-03-16T05:01:52.257Z,40.30
2018-03-16T05:02:14.356Z,40.30
2018-03-16T05:02:37.171Z,40.30
2018-03-16T05:02:59.999Z,40.30
2018-03-16T05:03:22.066Z,40.30
2018-03-16T05:03:44.235Z,40.30
2018-03-16T05:04:06.288Z,40.30
2018-03-16T05:04:28.346Z,40.20
2018-03-16T05:04:50.408Z,40.20
2018-03-16T05:05:13.239Z,40.20
2018-03-16T05:05:36.098Z,40.20
2018-03-16T05:05:58.230Z,40.80
2018-03-16T05:06:20.300Z,40.20
2018-03-16T05:06:42.371Z,40.20
2018-03-16T05:07:04.427Z,40.20
2018-03-16T05:07:26.478Z,40.20
2018-03-16T05:07:49.294Z,40.20
2018-03-16T05:08:11.362Z,40.20
2018-03-16T05:08:33.426Z,40.20
2018-03-16T05:08:55.494Z,40.20
2018-03-16T05:09:17.574Z,40.20
2018-03-16T05:09:40.429Z,40.20
2018-03-16T05:10:02.524Z,40.20
2018-03-16T05:10:25.426Z,40.20
2018-03-16T05:10:47.502Z,40.20
2018-03-16T05:11:09.587Z,40.10
2018-03-16T05:11:32.455Z,40.20
2018-03-16T05:11:54.509Z,40.20
2018-03-16T05:12:16.582Z,40.20
2018-03-16T05:12:38.662Z,40.20
2018-03-16T05:13:00.832Z,40.20
2018-03-16T05:13:22.889Z,40.20
2018-03-16T05:13:44.935Z,40.20
2018-03-16T05:14:07.763Z,40.70
2018-03-16T05:14:29.835Z,40.10
2018-03-16T05:14:51.913Z,40.10
2018-03-16T05:15:14.750Z,40.20
2018-03-16T05:15:37.605Z,40.20
2018-03-16T05:16:00.413Z,40.20
2018-03-16T05:16:23.226Z,40.20
2018-03-16T05:16:45.292Z,40.10
2018-03-16T05:17:07.357Z,40.10
2018-03-16T05:17:29.423Z,40.20
2018-03-16T05:17:51.485Z,40.10
2018-03-16T05:18:13.549Z,40.20
2018-03-16T05:18:35.618Z,40.10
2018-03-16T05:18:57.664Z,40.10
2018-03-16T05:19:19.712Z,40.10
2018-03-16T05:19:42.040Z,40.10
2018-03-16T05:20:04.133Z,40.10
2018-03-16T05:20:26.966Z,40.10
2018-03-16T05:20:49.885Z,40.10
2018-03-16T05:21:12.000Z,40.10
2018-03-16T05:21:34.093Z,40.10
2018-03-16T05:21:56.165Z,40.10
2018-03-16T05:22:18.974Z,40.10
2018-03-16T05:22:41.033Z,40.10
2018-03-16T05:23:03.086Z,40.10
2018-03-16T05:23:25.141Z,40.10
2018-03-16T05:23:47.963Z,40.20
2018-03-16T05:24:10.045Z,40.10
2018-03-16T05:24:32.111Z,40.10
2018-03-16T05:24:54.972Z,40.10
2018-03-16T05:25:17.024Z,40.10
2018-03-16T05:25:39.084Z,40.10
2018-03-16T05:26:01.898Z,40.10
2018-03-16T05:26:23.945Z,40.10
2018-03-16T05:26:46.004Z,40.10
2018-03-16T05:27:08.060Z,40.10
2018-03-16T05:27:30.108Z,40.10
2018-03-16T05:27:52.156Z,40.10
2018-03-16T05:28:14.205Z,40.10
2018-03-16T05:28:36.317Z,40.10
2018-03-16T05:28:58.381Z,40.50
2018-03-16T05:29:20.446Z,40.10
2018-03-16T05:29:42.505Z,40.10
2018-03-16T05:30:04.580Z,40.10
2018-03-16T05:30:26.627Z,40.10